createdAt,value
2022-12-31T00:00:20.947Z,15.30
2022-12-31T00:01:54.174Z,15.32
2022-12-31T00:03:29.065Z,15.90
2022-12-31T00:05:02.325Z,17.13
2022-12-31T00:06:37.233Z,20.80
2022-12-31T00:08:10.645Z,17.52
2022-12-31T00:09:44.209Z,13.70
2022-12-31T00:11:17.928Z,10.00
2022-12-31T00:12:51.417Z,10.90
2022-12-31T00:14:24.580Z,10.73
2022-12-31T00:16:12.022Z,10.43
2022-12-31T00:17:45.678Z,10.40
2022-12-31T00:19:20.509Z,12.95
2022-12-31T00:20:53.671Z,10.48
2022-12-31T00:22:26.804Z,11.90
2022-12-31T00:24:00.023Z,15.05
2022-12-31T00:25:34.902Z,15.45
2022-12-31T00:27:08.009Z,16.25
2022-12-31T00:28:42.271Z,16.27
2022-12-31T00:30:15.878Z,15.75
2022-12-31T00:31:49.384Z,15.30
2022-12-31T00:33:22.510Z,15.70
2022-12-31T00:34:57.371Z,26.42
2022-12-31T00:36:32.241Z,19.52
2022-12-31T00:38:05.441Z,29.45
2022-12-31T00:39:38.581Z,23.90
2022-12-31T00:41:12.816Z,16.63
2022-12-31T00:42:45.931Z,14.75
2022-12-31T00:44:19.183Z,15.95
2022-12-31T00:45:52.416Z,15.98
2022-12-31T00:47:26.467Z,15.20
2022-12-31T00:48:59.643Z,14.60
2022-12-31T00:50:34.513Z,12.70
2022-12-31T00:52:07.771Z,11.65
2022-12-31T00:53:41.310Z,10.85
2022-12-31T00:55:14.455Z,12.85
2022-12-31T00:56:47.742Z,12.57
2022-12-31T00:58:20.914Z,11.98
2022-12-31T00:59:54.010Z,12.90
2022-12-31T01:01:29.278Z,11.70
2022-12-31T01:03:03.065Z,12.15
2022-12-31T01:04:36.241Z,12.75
2022-12-31T01:06:11.393Z,12.82
2022-12-31T01:07:44.568Z,10.90
2022-12-31T01:09:19.052Z,12.13
2022-12-31T01:11:09.705Z,11.43
2022-12-31T01:12:43.155Z,10.88
2022-12-31T01:14:19.451Z,11.30
2022-12-31T01:15:51.582Z,11.55
2022-12-31T01:17:24.796Z,13.68
2022-12-31T01:19:03.301Z,12.25
2022-12-31T01:20:37.956Z,19.40
2022-12-31T01:22:12.795Z,30.90
2022-12-31T01:23:45.429Z,27.20
2022-12-31T01:25:18.628Z,19.38
2022-12-31T01:26:52.169Z,17.75
2022-12-31T01:28:25.409Z,18.13
2022-12-31T01:29:58.506Z,16.85
2022-12-31T01:31:31.830Z,16.58
2022-12-31T01:33:04.194Z,18.15
2022-12-31T01:34:37.433Z,18.88
2022-12-31T01:36:14.180Z,20.08
2022-12-31T01:37:48.942Z,22.17
2022-12-31T01:39:22.077Z,19.50
2022-12-31T01:40:54.310Z,20.25
2022-12-31T01:42:27.449Z,20.65
2022-12-31T01:44:03.307Z,18.88
2022-12-31T01:45:36.462Z,23.10
2022-12-31T01:47:16.409Z,24.42
2022-12-31T01:48:52.838Z,25.35
2022-12-31T01:50:29.959Z,24.83
2022-12-31T01:52:07.929Z,21.95
2022-12-31T01:53:43.829Z,20.52
2022-12-31T01:55:21.347Z,23.02
2022-12-31T01:56:56.567Z,21.17
2022-12-31T01:58:32.601Z,22.88
2022-12-31T02:00:06.373Z,21.77
2022-12-31T02:01:40.405Z,21.83
2022-12-31T02:03:14.838Z,23.67
2022-12-31T02:04:48.075Z,23.20
2022-12-31T02:06:23.608Z,22.95
2022-12-31T02:07:58.599Z,24.48
2022-12-31T02:09:34.614Z,23.48
2022-12-31T02:11:23.188Z,22.55
2022-12-31T02:12:56.626Z,23.20
2022-12-31T02:14:33.924Z,23.15
2022-12-31T02:16:15.030Z,19.88
2022-12-31T02:17:57.438Z,11.75
2022-12-31T02:20:06.683Z,10.63
2022-12-31T02:21:53.989Z,11.48
2022-12-31T02:24:05.002Z,10.27
2022-12-31T02:25:53.643Z,10.98
2022-12-31T02:27:37.747Z,10.82
2022-12-31T02:29:42.980Z,10.70
2022-12-31T02:31:23.952Z,12.07
2022-12-31T02:33:11.934Z,11.32
2022-12-31T02:34:51.477Z,12.13
2022-12-31T02:36:28.925Z,11.23
2022-12-31T02:38:06.032Z,10.68
2022-12-31T02:39:38.509Z,10.85
2022-12-31T02:41:35.107Z,11.30
2022-12-31T02:43:08.338Z,10.95
2022-12-31T02:44:42.194Z,10.68
2022-12-31T02:46:28.513Z,10.65
2022-12-31T02:48:27.565Z,9.88
2022-12-31T02:50:14.660Z,11.85
2022-12-31T02:51:53.695Z,10.77
2022-12-31T02:53:41.585Z,10.13
2022-12-31T02:55:24.501Z,11.38
2022-12-31T02:57:09.666Z,10.63
2022-12-31T02:59:07.409Z,9.68
2022-12-31T03:01:05.330Z,10.50
2022-12-31T03:02:43.198Z,9.90
2022-12-31T03:04:32.307Z,9.20
2022-12-31T03:06:07.221Z,9.18
2022-12-31T03:07:42.028Z,10.52
2022-12-31T03:09:14.107Z,10.63
2022-12-31T03:10:47.419Z,9.57
2022-12-31T03:12:39.859Z,10.93
2022-12-31T03:14:12.044Z,10.20
2022-12-31T03:15:45.493Z,11.20
2022-12-31T03:17:17.667Z,12.80
2022-12-31T03:19:06.403Z,12.15
2022-12-31T03:20:59.100Z,12.98
2022-12-31T03:22:32.458Z,13.40
2022-12-31T03:24:23.570Z,15.65
2022-12-31T03:25:57.830Z,14.88
2022-12-31T03:27:29.988Z,11.93
2022-12-31T03:29:03.189Z,12.70
2022-12-31T03:30:38.033Z,17.17
2022-12-31T03:32:10.457Z,14.70
2022-12-31T03:33:43.811Z,14.73
2022-12-31T03:35:20.363Z,11.60
2022-12-31T03:36:53.513Z,12.18
2022-12-31T03:38:26.915Z,11.82
2022-12-31T03:39:59.130Z,11.90
2022-12-31T03:41:32.487Z,11.88
2022-12-31T03:43:05.735Z,11.38
2022-12-31T03:44:37.822Z,11.80
2022-12-31T03:46:11.116Z,12.00
2022-12-31T03:47:44.551Z,11.18
2022-12-31T03:49:17.806Z,9.52
2022-12-31T03:50:52.447Z,9.68
2022-12-31T03:52:24.701Z,9.15
2022-12-31T03:53:58.048Z,9.23
2022-12-31T03:55:31.195Z,9.23
2022-12-31T03:57:03.687Z,9.93
2022-12-31T03:58:36.893Z,9.00
2022-12-31T04:00:14.065Z,7.88
2022-12-31T04:01:47.981Z,8.82
2022-12-31T04:03:22.048Z,8.38
2022-12-31T04:04:55.265Z,8.52
2022-12-31T04:06:29.781Z,8.63
2022-12-31T04:08:03.443Z,9.00
2022-12-31T04:09:36.923Z,8.43
2022-12-31T04:11:12.065Z,10.00
2022-12-31T04:12:47.199Z,8.93
2022-12-31T04:14:20.434Z,9.23
2022-12-31T04:15:53.785Z,8.27
2022-12-31T04:17:27.004Z,9.20
2022-12-31T04:19:00.628Z,9.40
2022-12-31T04:20:33.799Z,10.90
2022-12-31T04:22:08.923Z,15.00
2022-12-31T04:23:42.105Z,14.68
2022-12-31T04:25:15.590Z,15.63
2022-12-31T04:26:49.745Z,15.68
2022-12-31T04:28:23.245Z,15.25
2022-12-31T04:29:56.330Z,14.55
2022-12-31T04:31:29.450Z,13.65
2022-12-31T04:33:02.580Z,14.90
2022-12-31T04:34:36.626Z,15.32
2022-12-31T04:36:09.384Z,15.35
2022-12-31T04:37:43.857Z,15.55
2022-12-31T04:39:16.989Z,15.13
2022-12-31T04:41:07.727Z,16.33
2022-12-31T04:42:40.898Z,15.93
2022-12-31T04:44:14.397Z,17.25
2022-12-31T04:45:46.678Z,19.98
2022-12-31T04:47:23.630Z,20.23
2022-12-31T04:48:57.238Z,22.73
2022-12-31T04:50:30.522Z,22.33
2022-12-31T04:52:04.542Z,23.30
2022-12-31T04:53:38.352Z,24.77
2022-12-31T04:55:12.045Z,25.58
2022-12-31T04:56:44.450Z,28.80
2022-12-31T04:58:17.998Z,26.85
2022-12-31T04:59:51.264Z,33.63
2022-12-31T05:01:24.807Z,30.63
2022-12-31T05:02:57.951Z,33.63
2022-12-31T05:04:31.050Z,32.63
2022-12-31T05:06:05.289Z,30.17
2022-12-31T05:07:38.380Z,28.20
2022-12-31T05:09:12.837Z,32.78
2022-12-31T05:10:48.462Z,33.08
2022-12-31T05:12:22.008Z,27.55
2022-12-31T05:13:55.100Z,29.85
2022-12-31T05:15:28.563Z,29.38
2022-12-31T05:17:05.103Z,28.90
2022-12-31T05:18:38.712Z,32.97
2022-12-31T05:20:12.169Z,34.22
2022-12-31T05:22:05.466Z,31.38
2022-12-31T05:23:38.890Z,29.60
2022-12-31T05:25:13.546Z,29.95
2022-12-31T05:26:46.708Z,45.40
2022-12-31T05:28:19.858Z,103.05
2022-12-31T05:29:53.010Z,29.38
2022-12-31T05:31:26.204Z,23.20
2022-12-31T05:32:58.661Z,20.27
2022-12-31T05:34:31.830Z,20.55
2022-12-31T05:36:05.525Z,19.67
2022-12-31T05:37:37.801Z,17.67
2022-12-31T05:39:11.251Z,15.77
2022-12-31T05:40:45.756Z,13.05
2022-12-31T05:42:19.403Z,31.02
2022-12-31T05:43:52.516Z,11.05
2022-12-31T05:45:30.735Z,11.73
2022-12-31T05:47:04.496Z,12.10
2022-12-31T05:48:37.669Z,10.98
2022-12-31T05:50:11.164Z,9.50
2022-12-31T05:51:44.349Z,10.15
2022-12-31T05:53:17.693Z,8.77
2022-12-31T05:54:50.855Z,8.05
2022-12-31T05:56:25.416Z,8.50
2022-12-31T05:57:58.592Z,12.50
2022-12-31T05:59:32.330Z,11.10
2022-12-31T06:01:06.307Z,11.23
2022-12-31T06:02:38.756Z,11.13
2022-12-31T06:04:11.951Z,21.42
2022-12-31T06:05:45.232Z,23.20
2022-12-31T06:07:17.373Z,20.00
2022-12-31T06:08:50.865Z,18.77
2022-12-31T06:10:24.485Z,11.80
2022-12-31T06:11:58.980Z,15.25
2022-12-31T06:13:32.749Z,15.45
2022-12-31T06:15:07.508Z,11.48
2022-12-31T06:16:40.658Z,14.60
2022-12-31T06:18:14.429Z,9.07
2022-12-31T06:19:51.000Z,9.55
2022-12-31T06:21:24.536Z,13.50
2022-12-31T06:22:57.655Z,131.00
2022-12-31T06:24:31.211Z,133.75
2022-12-31T06:26:05.592Z,57.58
2022-12-31T06:27:42.312Z,44.17
2022-12-31T06:29:17.161Z,34.10
2022-12-31T06:30:50.427Z,21.60
2022-12-31T06:32:24.414Z,17.08
2022-12-31T06:33:59.270Z,16.45
2022-12-31T06:35:33.093Z,18.63
2022-12-31T06:37:05.263Z,13.73
2022-12-31T06:38:40.589Z,11.85
2022-12-31T06:40:14.527Z,16.52
2022-12-31T06:41:48.306Z,13.98
2022-12-31T06:43:24.363Z,13.30
2022-12-31T06:44:57.562Z,10.13
2022-12-31T06:46:30.997Z,19.70
2022-12-31T06:48:04.319Z,16.55
2022-12-31T06:49:37.703Z,16.55
2022-12-31T06:51:17.317Z,15.02
2022-12-31T06:52:51.892Z,13.77
2022-12-31T06:54:25.114Z,16.98
2022-12-31T06:55:57.794Z,29.42
2022-12-31T06:57:31.911Z,30.88
2022-12-31T06:59:07.367Z,36.60
2022-12-31T07:00:45.018Z,39.13
2022-12-31T07:02:48.581Z,42.60
2022-12-31T07:05:05.827Z,48.30
2022-12-31T07:06:45.196Z,48.28
2022-12-31T07:08:42.103Z,42.58
2022-12-31T07:10:29.191Z,41.40
2022-12-31T07:12:07.906Z,38.95
2022-12-31T07:14:00.147Z,39.38
2022-12-31T07:15:49.763Z,38.03
2022-12-31T07:17:30.599Z,21.88
2022-12-31T07:19:17.081Z,31.92
2022-12-31T07:20:51.798Z,26.25
2022-12-31T07:22:25.497Z,41.47
2022-12-31T07:23:59.127Z,37.70
2022-12-31T07:25:33.877Z,24.92
2022-12-31T07:27:22.759Z,18.27
2022-12-31T07:29:07.087Z,23.02
2022-12-31T07:30:51.762Z,27.92
2022-12-31T07:32:38.549Z,20.30
2022-12-31T07:34:24.000Z,18.67
2022-12-31T07:36:08.983Z,14.18
2022-12-31T07:37:48.960Z,13.98
2022-12-31T07:39:29.605Z,13.73
2022-12-31T07:41:11.361Z,20.02
2022-12-31T07:43:00.140Z,25.27
2022-12-31T07:44:42.565Z,24.58
2022-12-31T07:46:23.943Z,24.60
2022-12-31T07:48:02.398Z,87.95
2022-12-31T07:49:38.819Z,26.15
2022-12-31T07:51:12.956Z,24.33
2022-12-31T07:52:47.735Z,48.85
2022-12-31T07:54:21.539Z,20.73
2022-12-31T07:55:57.687Z,18.95
2022-12-31T07:57:38.075Z,19.27
2022-12-31T07:59:31.302Z,18.75
2022-12-31T08:01:05.613Z,17.98
2022-12-31T08:03:02.300Z,16.52
2022-12-31T08:04:48.809Z,15.15
2022-12-31T08:06:35.408Z,14.77
2022-12-31T08:08:23.627Z,14.73
2022-12-31T08:10:04.310Z,14.77
2022-12-31T08:11:43.759Z,16.88
2022-12-31T08:13:19.219Z,26.15
2022-12-31T08:14:52.964Z,20.40
2022-12-31T08:16:30.529Z,21.52
2022-12-31T08:18:06.344Z,20.88
2022-12-31T08:19:39.206Z,20.83
2022-12-31T08:21:26.127Z,27.63
2022-12-31T08:23:22.002Z,23.65
2022-12-31T08:25:08.464Z,31.10
2022-12-31T08:26:53.642Z,36.90
2022-12-31T08:28:41.112Z,32.20
2022-12-31T08:30:17.061Z,28.45
2022-12-31T08:31:57.071Z,102.85
2022-12-31T08:33:40.939Z,45.85
2022-12-31T08:35:29.466Z,40.20
2022-12-31T08:37:08.793Z,39.15
2022-12-31T08:38:52.137Z,35.83
2022-12-31T08:40:29.657Z,35.80
2022-12-31T08:42:07.707Z,38.90
2022-12-31T08:43:50.550Z,38.15
2022-12-31T08:45:30.108Z,37.30
2022-12-31T08:47:14.651Z,36.58
2022-12-31T08:48:49.708Z,32.00
2022-12-31T08:50:23.865Z,38.78
2022-12-31T08:51:57.791Z,38.17
2022-12-31T08:53:32.320Z,43.78
2022-12-31T08:55:06.375Z,36.15
2022-12-31T08:56:50.646Z,33.10
2022-12-31T08:58:37.954Z,32.65
2022-12-31T09:00:15.056Z,23.40
2022-12-31T09:02:05.163Z,24.98
2022-12-31T09:03:56.946Z,26.45
2022-12-31T09:05:36.467Z,35.42
2022-12-31T09:07:12.065Z,30.95
2022-12-31T09:08:52.713Z,28.02
2022-12-31T09:10:33.376Z,29.95
2022-12-31T09:12:15.495Z,28.95
2022-12-31T09:14:33.623Z,25.90
2022-12-31T09:16:13.611Z,28.35
2022-12-31T09:17:49.758Z,71.53
2022-12-31T09:19:24.236Z,34.90
2022-12-31T09:20:57.981Z,46.78
2022-12-31T09:22:32.188Z,37.97
2022-12-31T09:24:09.519Z,41.25
2022-12-31T09:25:51.950Z,39.75
2022-12-31T09:27:31.516Z,38.22
2022-12-31T09:29:13.085Z,41.10
2022-12-31T09:30:55.836Z,45.72
2022-12-31T09:32:40.466Z,45.13
2022-12-31T09:34:21.253Z,42.03
2022-12-31T09:35:59.471Z,44.78
2022-12-31T09:37:44.903Z,42.50
2022-12-31T09:39:27.609Z,42.17
2022-12-31T09:41:14.915Z,44.25
2022-12-31T09:43:10.791Z,46.00
2022-12-31T09:45:27.137Z,52.25
2022-12-31T17:07:46.335Z,44.00
2022-12-31T17:09:23.406Z,43.22
2022-12-31T17:10:57.621Z,37.85
2022-12-31T17:13:00.600Z,37.58
2022-12-31T17:14:30.598Z,43.60
2022-12-31T17:16:04.452Z,42.85
2022-12-31T17:17:38.215Z,34.65
2022-12-31T17:19:32.685Z,31.67
2022-12-31T17:21:09.468Z,26.23
2022-12-31T17:22:44.101Z,32.63
2022-12-31T17:24:18.903Z,27.35
2022-12-31T17:25:59.203Z,25.25
2022-12-31T17:27:33.352Z,20.30
2022-12-31T17:29:08.030Z,17.83
2022-12-31T17:30:41.925Z,16.45
2022-12-31T17:32:30.499Z,16.33
2022-12-31T17:34:20.589Z,17.20
2022-12-31T17:35:57.154Z,16.02
2022-12-31T17:37:31.458Z,18.02
2022-12-31T17:39:19.234Z,17.77
2022-12-31T17:40:54.683Z,19.13
2022-12-31T17:42:32.478Z,20.75
2022-12-31T17:44:05.857Z,19.15
2022-12-31T17:45:40.513Z,30.95
2022-12-31T17:47:14.979Z,23.85
2022-12-31T17:48:52.937Z,30.33
2022-12-31T17:50:27.909Z,24.67
2022-12-31T17:52:01.136Z,20.27
2022-12-31T17:53:34.370Z,25.40
2022-12-31T17:55:09.388Z,20.80
2022-12-31T17:56:42.770Z,20.52
2022-12-31T17:58:26.039Z,16.83
2022-12-31T18:00:06.228Z,22.15
2022-12-31T18:01:49.094Z,16.65
2022-12-31T18:03:22.486Z,15.30
2022-12-31T18:04:55.642Z,18.88
2022-12-31T18:06:28.764Z,21.30
2022-12-31T18:08:02.457Z,28.15
2022-12-31T18:09:35.689Z,29.88
2022-12-31T18:11:15.715Z,35.15
2022-12-31T18:12:50.355Z,47.10
2022-12-31T18:14:23.542Z,30.50
2022-12-31T18:15:56.793Z,43.53
2022-12-31T18:17:30.297Z,27.05
2022-12-31T18:19:03.559Z,30.40
2022-12-31T18:20:36.749Z,28.98
2022-12-31T18:22:14.278Z,25.55
2022-12-31T18:23:49.441Z,23.50
2022-12-31T18:25:24.887Z,32.67
2022-12-31T18:27:01.087Z,36.40
2022-12-31T18:28:35.971Z,43.17
2022-12-31T18:30:11.244Z,28.63
2022-12-31T18:31:46.815Z,42.60
2022-12-31T18:33:22.481Z,32.05
2022-12-31T18:34:55.865Z,35.25
2022-12-31T18:36:30.185Z,38.95
2022-12-31T18:38:03.314Z,33.60
2022-12-31T18:39:36.915Z,32.28
2022-12-31T18:41:18.604Z,38.28
2022-12-31T18:42:53.130Z,36.55
2022-12-31T18:44:26.272Z,40.90
2022-12-31T18:45:59.999Z,38.88
2022-12-31T18:47:37.623Z,33.30
2022-12-31T18:49:11.452Z,28.77
2022-12-31T18:50:45.297Z,37.65
2022-12-31T18:52:20.929Z,88.80
2022-12-31T18:53:54.249Z,22.40
2022-12-31T18:55:40.349Z,19.75
2022-12-31T18:57:14.399Z,20.30
2022-12-31T18:58:49.588Z,18.80
2022-12-31T19:00:23.033Z,20.67
2022-12-31T19:01:59.262Z,27.17
2022-12-31T19:03:32.536Z,24.58
2022-12-31T19:05:22.131Z,43.50
2022-12-31T19:06:56.083Z,20.40
2022-12-31T19:08:29.399Z,20.63
2022-12-31T19:10:02.658Z,17.50
2022-12-31T19:11:35.972Z,18.23
2022-12-31T19:13:13.075Z,28.27
2022-12-31T19:14:47.627Z,22.10
2022-12-31T19:16:20.782Z,17.20
2022-12-31T19:17:54.048Z,14.18
2022-12-31T19:19:27.286Z,15.45
2022-12-31T19:21:00.461Z,16.25
2022-12-31T19:22:33.577Z,14.55
2022-12-31T19:24:13.218Z,14.88
2022-12-31T19:25:47.903Z,15.32
2022-12-31T19:27:21.209Z,15.90
2022-12-31T19:28:54.327Z,15.50
2022-12-31T19:30:30.834Z,17.27
2022-12-31T19:32:04.002Z,18.80
2022-12-31T19:33:37.536Z,16.35
2022-12-31T19:35:12.671Z,15.82
2022-12-31T19:36:45.842Z,16.80
2022-12-31T19:38:22.148Z,16.63
2022-12-31T19:39:55.684Z,18.77
2022-12-31T19:41:28.845Z,18.38
2022-12-31T19:43:02.192Z,21.08
2022-12-31T19:44:35.364Z,19.83
2022-12-31T19:46:13.747Z,21.50
2022-12-31T19:47:47.668Z,23.70
2022-12-31T19:49:21.061Z,22.30
2022-12-31T19:50:55.170Z,25.88
2022-12-31T19:52:28.284Z,27.67
2022-12-31T19:54:01.475Z,22.63
2022-12-31T19:55:34.966Z,23.73
2022-12-31T19:57:08.104Z,25.25
2022-12-31T19:58:41.423Z,24.75
2022-12-31T20:00:17.083Z,48.90
2022-12-31T20:01:51.774Z,45.22
2022-12-31T20:03:25.649Z,39.63
2022-12-31T20:04:59.124Z,43.70
2022-12-31T20:06:32.322Z,42.03
2022-12-31T20:08:05.902Z,33.40
2022-12-31T20:09:39.321Z,42.20
2022-12-31T20:11:14.709Z,49.72
2022-12-31T20:12:47.854Z,32.40
2022-12-31T20:14:21.286Z,24.60
2022-12-31T20:15:54.668Z,25.85
2022-12-31T20:17:29.242Z,23.75
2022-12-31T20:19:02.430Z,24.05
2022-12-31T20:20:35.809Z,32.58
2022-12-31T20:22:09.101Z,29.00
2022-12-31T20:23:42.237Z,27.48
2022-12-31T20:25:19.245Z,26.05
2022-12-31T20:26:55.362Z,22.10
2022-12-31T20:28:28.915Z,24.20
2022-12-31T20:30:21.079Z,20.75
2022-12-31T20:31:54.429Z,20.50
2022-12-31T20:33:31.578Z,21.33
2022-12-31T20:35:30.586Z,16.58
2022-12-31T20:37:03.812Z,19.92
2022-12-31T20:38:37.300Z,25.38
2022-12-31T20:40:12.172Z,54.15
2022-12-31T20:41:45.467Z,56.75
2022-12-31T20:43:18.688Z,63.90
2022-12-31T20:44:51.953Z,42.03
2022-12-31T20:46:27.271Z,42.17
2022-12-31T20:48:06.640Z,54.17
2022-12-31T20:50:10.412Z,45.72
2022-12-31T20:51:36.705Z,36.97
2022-12-31T20:53:09.823Z,47.90
2022-12-31T20:54:42.999Z,56.25
2022-12-31T20:56:16.998Z,43.38
2022-12-31T20:57:50.244Z,43.25
2022-12-31T20:59:23.410Z,42.85
2022-12-31T21:00:56.575Z,42.25
2022-12-31T21:02:40.671Z,38.45
2022-12-31T21:04:15.809Z,28.42
2022-12-31T21:05:51.452Z,21.48
2022-12-31T21:07:24.885Z,21.73
2022-12-31T21:08:59.856Z,20.35
2022-12-31T21:10:34.651Z,25.15
2022-12-31T21:12:25.553Z,23.63
2022-12-31T21:13:59.631Z,16.60
2022-12-31T21:15:33.069Z,16.98
2022-12-31T21:17:06.299Z,15.38
2022-12-31T21:18:48.737Z,18.10
2022-12-31T21:20:21.916Z,17.55
2022-12-31T21:21:56.764Z,17.45
2022-12-31T21:23:29.976Z,15.88
2022-12-31T21:25:03.607Z,14.23
2022-12-31T21:26:36.780Z,17.30
2022-12-31T21:28:10.382Z,15.02
2022-12-31T21:30:16.450Z,13.73
2022-12-31T21:31:36.779Z,13.50
2022-12-31T21:33:10.039Z,12.77
2022-12-31T21:34:43.310Z,13.70
2022-12-31T21:36:17.433Z,14.95
2022-12-31T21:37:59.022Z,16.48
2022-12-31T21:39:33.942Z,12.23
2022-12-31T21:41:08.954Z,12.00
2022-12-31T21:42:42.233Z,13.35
2022-12-31T21:44:15.558Z,12.77
2022-12-31T21:45:48.713Z,12.93
2022-12-31T21:47:45.664Z,13.48
2022-12-31T21:49:20.548Z,14.52
2022-12-31T21:50:55.592Z,14.95
2022-12-31T21:52:27.854Z,22.13
2022-12-31T21:54:02.860Z,17.73
2022-12-31T21:55:56.899Z,17.95
2022-12-31T21:57:37.489Z,19.65
2022-12-31T21:59:40.136Z,17.95
2022-12-31T22:01:37.536Z,39.50
2022-12-31T22:03:27.060Z,30.40
2022-12-31T22:05:02.334Z,19.95
2022-12-31T22:06:37.720Z,23.75
2022-12-31T22:08:11.516Z,59.22
2022-12-31T22:09:46.027Z,124.72
2022-12-31T22:11:21.348Z,130.25
2022-12-31T22:12:54.683Z,117.20
2022-12-31T22:14:27.939Z,183.85
2022-12-31T22:16:05.405Z,138.15
2022-12-31T22:17:39.141Z,153.30
2022-12-31T22:19:12.396Z,141.73
2022-12-31T22:20:45.772Z,138.32
2022-12-31T22:22:18.959Z,143.07
2022-12-31T22:23:53.561Z,190.50
2022-12-31T22:25:28.129Z,113.10
2022-12-31T22:27:29.487Z,101.50
2022-12-31T22:28:59.107Z,99.03
2022-12-31T22:30:32.338Z,66.40
2022-12-31T22:32:05.931Z,49.13
2022-12-31T22:33:38.989Z,41.03
2022-12-31T22:35:12.183Z,48.13
2022-12-31T22:36:45.375Z,56.17
2022-12-31T22:38:18.640Z,57.80
2022-12-31T22:39:51.806Z,56.33
2022-12-31T22:41:27.750Z,58.05
2022-12-31T22:43:01.007Z,62.08
2022-12-31T22:44:34.235Z,63.30
2022-12-31T22:46:09.900Z,144.85
2022-12-31T22:47:43.124Z,169.43
2022-12-31T22:49:17.905Z,130.18
2022-12-31T22:50:57.015Z,135.60
2022-12-31T22:52:30.193Z,111.82
2022-12-31T22:54:03.329Z,119.70
2022-12-31T22:55:36.711Z,96.13
2022-12-31T22:57:17.831Z,91.78
2022-12-31T22:58:53.080Z,93.70
2022-12-31T23:00:39.599Z,95.68
2022-12-31T23:02:12.769Z,97.22
2022-12-31T23:03:46.186Z,94.13
2022-12-31T23:05:19.456Z,93.43
2022-12-31T23:06:52.674Z,85.50
2022-12-31T23:08:25.740Z,69.30
2022-12-31T23:10:16.611Z,64.97
2022-12-31T23:11:50.124Z,63.25
2022-12-31T23:13:49.477Z,61.63
2022-12-31T23:15:41.331Z,48.85
2022-12-31T23:17:35.443Z,38.70
2022-12-31T23:19:26.597Z,32.00
2022-12-31T23:21:17.318Z,40.17
2022-12-31T23:23:07.850Z,25.08
2022-12-31T23:24:41.141Z,28.00
2022-12-31T23:26:14.601Z,27.85
2022-12-31T23:27:47.746Z,28.65
2022-12-31T23:29:22.376Z,28.17
2022-12-31T23:30:55.615Z,29.17
2022-12-31T23:32:28.781Z,27.25
2022-12-31T23:34:01.930Z,38.55
2022-12-31T23:35:36.812Z,31.25
2022-12-31T23:37:11.018Z,39.38
2022-12-31T23:38:44.236Z,24.58
2022-12-31T23:40:34.232Z,22.73
2022-12-31T23:42:07.834Z,18.67
2022-12-31T23:43:41.346Z,55.85
2022-12-31T23:45:16.171Z,22.42
2022-12-31T23:46:49.555Z,21.27
2022-12-31T23:48:22.747Z,20.30
2022-12-31T23:49:55.882Z,19.38
2022-12-31T23:51:29.368Z,18.60
2022-12-31T23:53:02.473Z,19.42
2022-12-31T23:54:36.118Z,20.73
2022-12-31T23:56:16.154Z,20.38
2022-12-31T23:57:52.467Z,20.33
2022-12-31T23:59:25.692Z,19.80
